Geervliet — PCLI — position and weather

sailwx.info

Track history (hours):
 
Tides and Currents Weather Stations Pressure Air Temp Water Temp Dewpoint Dewpoint Depression Visibility Wind Speed Wind Dir Waves Ship Positions

Geervliet

Last reported at 2017-Jan-18 04:04 UTC. Time now 2017-Jan-18 12:10 UTC.
Position N 53°14' E 001°08'.

Length 86 m; draft 5.5 m.

Type: Ship. MMSI: 246803000.

Date/timePositionNaut miles runAvg speedWind from/ knotsBaromVisibWave heightAir tempDewpointWater temp
2017-Jan-18 04:04N 53°14' E 001°08'510.8
2017-Jan-18 03:33N 53°10' E 001°14'1010.3
2017-Jan-18 02:33N 53°02' E 001°25'9 9.2
2017-Jan-18 01:33N 52°55' E 001°35'8 7.9
2017-Jan-18 00:33N 52°50' E 001°45'8 6.9
2017-Jan-17 23:24N 52°45' E 001°55'32 8.3
2017-Jan-17 19:33N 52°13' E 001°50'1111.3
2017-Jan-17 18:33N 52°02' E 001°49'1211.7
2017-Jan-17 17:33N 51°50' E 001°49'1111.3
2017-Jan-17 16:33N 51°39' E 001°50'1111.0
2017-Jan-17 15:33N 51°28' E 001°45'1111.4
2017-Jan-17 14:33N 51°17' E 001°40'10 9.8
2017-Jan-17 13:34N 51°07' E 001°40'10 9.8
2017-Jan-17 12:33N 50°60' E 001°30'8 8.4
2017-Jan-17 11:34N 50°53' E 001°24'9 8.1
2017-Jan-17 10:24N 50°44' E 001°20'41 8.3
2017-Jan-17 05:27N 50°25' E 000°22'8 8.4
2017-Jan-17 04:32N 50°23' E 000°10'8 8.6
2017-Jan-17 03:33N 50°20' W 000°03'9 9.0
2017-Jan-17 02:33N 50°18' W 000°16'3411.3
2017-Jan-16 23:34N 50°07' W 001°06'1312.9
2017-Jan-16 22:33N 50°04' W 001°26'1312.9
2017-Jan-16 21:34N 50°01' W 001°45'1211.8
2017-Jan-16 20:33N 49°58' W 002°03'28 8.8
2017-Jan-16 17:20N 49°49' W 002°45'16 7.2
2017-Jan-16 15:06N 49°43' W 003°07'8 7.7
2017-Jan-16 14:05N 49°39' W 003°18'81 9.5
2017-Jan-16 05:31N 48°57' W 005°04'1110.6
2017-Jan-16 04:27N 48°52' W 005°19'  
2017-Jan-13 03:18N 39°22' W 009°50'7 9.8
2017-Jan-13 02:33N 39°15' W 009°50'1010.1
2017-Jan-13 01:34N 39°04' W 009°50'1010.0
2017-Jan-13 00:33N 38°54' W 009°51'1010.2
2017-Jan-12 23:33N 38°44' W 009°50'1010.0
2017-Jan-12 22:33N 38°34' W 009°48'1010.0
2017-Jan-12 21:33N 38°25' W 009°45'1010.0
2017-Jan-12 20:33N 38°15' W 009°42'1010.1
2017-Jan-12 19:33N 38°05' W 009°40'1110.3
2017-Jan-12 18:26N 37°54' W 009°37'910.2
2017-Jan-12 17:33N 37°45' W 009°34'217 9.7
2017-Jan-11 19:16N 35°58' W 005°39'6 9.0
2017-Jan-11 18:33N 35°59' W 005°31'9 9.3
2017-Jan-11 17:34N 36°02' W 005°20'12610.5
2017-Jan-11 05:33N 36°21' W 002°46'10 9.5
2017-Jan-11 04:32N 36°22' W 002°34'9 9.2
2017-Jan-11 03:33N 36°24' W 002°23'  
Track history (hours):
 
Tides and Currents Weather Stations Pressure Air Temp Water Temp Dewpoint Dewpoint Depression Visibility Wind Speed Wind Dir Waves Ship Positions

Geervliet

Last reported at 2017-Jan-18 04:04 UTC. Time now 2017-Jan-18 12:10 UTC.
Position N 53°14' E 001°08'.

Length 86 m; draft 5.5 m.

Type: Ship. MMSI: 246803000.

Date/timePositionNaut miles runAvg speedWind from/ knotsBaromVisibWave heightAir tempDewpointWater temp
2017-Jan-18 04:04N 53°14' E 001°08'510.8
2017-Jan-18 03:33N 53°10' E 001°14'1010.3
2017-Jan-18 02:33N 53°02' E 001°25'9 9.2
2017-Jan-18 01:33N 52°55' E 001°35'8 7.9
2017-Jan-18 00:33N 52°50' E 001°45'8 6.9
2017-Jan-17 23:24N 52°45' E 001°55'32 8.3
2017-Jan-17 19:33N 52°13' E 001°50'1111.3
2017-Jan-17 18:33N 52°02' E 001°49'1211.7
2017-Jan-17 17:33N 51°50' E 001°49'1111.3
2017-Jan-17 16:33N 51°39' E 001°50'1111.0
2017-Jan-17 15:33N 51°28' E 001°45'1111.4
2017-Jan-17 14:33N 51°17' E 001°40'10 9.8
2017-Jan-17 13:34N 51°07' E 001°40'10 9.8
2017-Jan-17 12:33N 50°60' E 001°30'8 8.4
2017-Jan-17 11:34N 50°53' E 001°24'9 8.1
2017-Jan-17 10:24N 50°44' E 001°20'41 8.3
2017-Jan-17 05:27N 50°25' E 000°22'8 8.4
2017-Jan-17 04:32N 50°23' E 000°10'8 8.6
2017-Jan-17 03:33N 50°20' W 000°03'9 9.0
2017-Jan-17 02:33N 50°18' W 000°16'3411.3
2017-Jan-16 23:34N 50°07' W 001°06'1312.9
2017-Jan-16 22:33N 50°04' W 001°26'1312.9
2017-Jan-16 21:34N 50°01' W 001°45'1211.8
2017-Jan-16 20:33N 49°58' W 002°03'28 8.8
2017-Jan-16 17:20N 49°49' W 002°45'16 7.2
2017-Jan-16 15:06N 49°43' W 003°07'8 7.7
2017-Jan-16 14:05N 49°39' W 003°18'81 9.5
2017-Jan-16 05:31N 48°57' W 005°04'1110.6
2017-Jan-16 04:27N 48°52' W 005°19'  
2017-Jan-13 03:18N 39°22' W 009°50'7 9.8
2017-Jan-13 02:33N 39°15' W 009°50'1010.1
2017-Jan-13 01:34N 39°04' W 009°50'1010.0
2017-Jan-13 00:33N 38°54' W 009°51'1010.2
2017-Jan-12 23:33N 38°44' W 009°50'1010.0
2017-Jan-12 22:33N 38°34' W 009°48'1010.0
2017-Jan-12 21:33N 38°25' W 009°45'1010.0
2017-Jan-12 20:33N 38°15' W 009°42'1010.1
2017-Jan-12 19:33N 38°05' W 009°40'1110.3
2017-Jan-12 18:26N 37°54' W 009°37'910.2
2017-Jan-12 17:33N 37°45' W 009°34'217 9.7
2017-Jan-11 19:16N 35°58' W 005°39'6 9.0
2017-Jan-11 18:33N 35°59' W 005°31'9 9.3
2017-Jan-11 17:34N 36°02' W 005°20'12610.5
2017-Jan-11 05:33N 36°21' W 002°46'10 9.5
2017-Jan-11 04:32N 36°22' W 002°34'9 9.2
2017-Jan-11 03:33N 36°24' W 002°23'  

Dump ship's entire track history